sensor_id;sensor_type;location;lat;lon;timestamp;P1;durP1;ratioP1;P2;durP2;ratioP2
60257;SDS011;46115;44.484;11.314;2023-02-11T00:01:16;34.17;;;17.88;;
60257;SDS011;46115;44.484;11.314;2023-02-11T00:05:32;33.58;;;17.10;;
60257;SDS011;46115;44.484;11.314;2023-02-11T00:09:51;36.10;;;17.58;;
60257;SDS011;46115;44.484;11.314;2023-02-11T00:13:58;32.47;;;17.42;;
60257;SDS011;46115;44.484;11.314;2023-02-11T00:18:15;35.28;;;18.23;;
60257;SDS011;46115;44.484;11.314;2023-02-11T00:22:29;39.25;;;17.63;;
60257;SDS011;46115;44.484;11.314;2023-02-11T00:26:35;32.40;;;17.52;;
60257;SDS011;46115;44.484;11.314;2023-02-11T00:30:44;36.60;;;18.40;;
60257;SDS011;46115;44.484;11.314;2023-02-11T00:35:04;34.38;;;17.40;;
60257;SDS011;46115;44.484;11.314;2023-02-11T00:39:17;33.78;;;17.58;;
60257;SDS011;46115;44.484;11.314;2023-02-11T00:43:29;35.80;;;16.75;;
60257;SDS011;46115;44.484;11.314;2023-02-11T00:47:36;33.13;;;16.70;;
60257;SDS011;46115;44.484;11.314;2023-02-11T00:51:59;34.17;;;17.00;;
60257;SDS011;46115;44.484;11.314;2023-02-11T00:56:08;32.20;;;16.92;;
60257;SDS011;46115;44.484;11.314;2023-02-11T01:00:24;35.65;;;17.23;;
60257;SDS011;46115;44.484;11.314;2023-02-11T01:04:44;34.35;;;16.35;;
60257;SDS011;46115;44.484;11.314;2023-02-11T01:08:50;33.95;;;16.88;;
60257;SDS011;46115;44.484;11.314;2023-02-11T01:13:07;32.08;;;16.30;;
60257;SDS011;46115;44.484;11.314;2023-02-11T01:17:20;33.42;;;17.13;;
60257;SDS011;46115;44.484;11.314;2023-02-11T01:21:32;31.67;;;16.77;;
60257;SDS011;46115;44.484;11.314;2023-02-11T01:26:01;32.85;;;16.55;;
60257;SDS011;46115;44.484;11.314;2023-02-11T01:30:16;31.65;;;15.82;;
60257;SDS011;46115;44.484;11.314;2023-02-11T01:34:27;31.77;;;15.90;;
60257;SDS011;46115;44.484;11.314;2023-02-11T01:42:49;33.95;;;16.30;;
60257;SDS011;46115;44.484;11.314;2023-02-11T01:46:59;33.22;;;16.08;;
60257;SDS011;46115;44.484;11.314;2023-02-11T01:51:13;33.08;;;16.10;;
60257;SDS011;46115;44.484;11.314;2023-02-11T01:55:49;29.20;;;14.77;;
60257;SDS011;46115;44.484;11.314;2023-02-11T02:00:14;30.83;;;15.25;;
60257;SDS011;46115;44.484;11.314;2023-02-11T02:04:31;30.77;;;15.82;;
60257;SDS011;46115;44.484;11.314;2023-02-11T02:08:51;29.27;;;14.95;;
60257;SDS011;46115;44.484;11.314;2023-02-11T02:13:12;30.13;;;15.23;;
60257;SDS011;46115;44.484;11.314;2023-02-11T02:17:27;31.75;;;14.75;;
60257;SDS011;46115;44.484;11.314;2023-02-11T02:31:29;30.55;;;15.38;;
60257;SDS011;46115;44.484;11.314;2023-02-11T02:36:04;33.50;;;15.30;;
60257;SDS011;46115;44.484;11.314;2023-02-11T02:44:46;26.95;;;14.27;;
60257;SDS011;46115;44.484;11.314;2023-02-11T02:48:54;29.92;;;14.13;;
60257;SDS011;46115;44.484;11.314;2023-02-11T02:53:17;28.38;;;13.90;;
60257;SDS011;46115;44.484;11.314;2023-02-11T02:57:44;29.15;;;14.68;;
60257;SDS011;46115;44.484;11.314;2023-02-11T03:02:26;25.88;;;13.32;;
60257;SDS011;46115;44.484;11.314;2023-02-11T03:06:42;27.13;;;13.60;;
60257;SDS011;46115;44.484;11.314;2023-02-11T03:11:11;28.20;;;14.38;;
60257;SDS011;46115;44.484;11.314;2023-02-11T03:15:31;28.15;;;14.70;;
60257;SDS011;46115;44.484;11.314;2023-02-11T03:19:49;26.40;;;13.40;;
60257;SDS011;46115;44.484;11.314;2023-02-11T03:24:02;29.60;;;13.77;;
60257;SDS011;46115;44.484;11.314;2023-02-11T03:32:22;25.73;;;12.45;;
60257;SDS011;46115;44.484;11.314;2023-02-11T03:36:40;26.48;;;13.40;;
60257;SDS011;46115;44.484;11.314;2023-02-11T03:40:51;28.88;;;12.98;;
60257;SDS011;46115;44.484;11.314;2023-02-11T03:45:09;25.55;;;13.20;;
60257;SDS011;46115;44.484;11.314;2023-02-11T03:49:21;29.23;;;12.15;;
60257;SDS011;46115;44.484;11.314;2023-02-11T03:53:45;26.60;;;13.53;;
60257;SDS011;46115;44.484;11.314;2023-02-11T03:57:51;25.38;;;12.93;;
60257;SDS011;46115;44.484;11.314;2023-02-11T04:02:21;25.70;;;12.63;;
60257;SDS011;46115;44.484;11.314;2023-02-11T04:06:28;25.00;;;12.55;;
60257;SDS011;46115;44.484;11.314;2023-02-11T04:10:38;27.15;;;12.57;;
60257;SDS011;46115;44.484;11.314;2023-02-11T04:14:45;26.08;;;12.52;;
60257;SDS011;46115;44.484;11.314;2023-02-11T04:22:50;24.60;;;11.45;;
60257;SDS011;46115;44.484;11.314;2023-02-11T04:30:55;22.97;;;12.03;;
60257;SDS011;46115;44.484;11.314;2023-02-11T04:34:59;23.35;;;12.05;;
60257;SDS011;46115;44.484;11.314;2023-02-11T04:39:02;25.58;;;12.18;;
60257;SDS011;46115;44.484;11.314;2023-02-11T04:43:05;23.38;;;11.85;;
60257;SDS011;46115;44.484;11.314;2023-02-11T04:47:07;23.38;;;11.90;;
60257;SDS011;46115;44.484;11.314;2023-02-11T04:51:16;22.98;;;11.18;;
60257;SDS011;46115;44.484;11.314;2023-02-11T04:55:18;25.92;;;11.95;;
60257;SDS011;46115;44.484;11.314;2023-02-11T05:03:22;22.50;;;10.60;;
60257;SDS011;46115;44.484;11.314;2023-02-11T05:11:28;21.98;;;10.85;;
60257;SDS011;46115;44.484;11.314;2023-02-11T05:19:32;20.20;;;10.13;;
60257;SDS011;46115;44.484;11.314;2023-02-11T05:27:39;22.33;;;10.50;;
60257;SDS011;46115;44.484;11.314;2023-02-11T05:35:43;24.60;;;10.20;;
60257;SDS011;46115;44.484;11.314;2023-02-11T05:39:47;19.70;;;9.65;;
60257;SDS011;46115;44.484;11.314;2023-02-11T05:43:49;18.92;;;9.98;;
60257;SDS011;46115;44.484;11.314;2023-02-11T05:47:52;22.10;;;10.35;;
60257;SDS011;46115;44.484;11.314;2023-02-11T05:55:58;21.30;;;10.25;;
60257;SDS011;46115;44.484;11.314;2023-02-11T06:00:00;19.50;;;9.30;;
60257;SDS011;46115;44.484;11.314;2023-02-11T06:04:13;21.20;;;10.32;;
60257;SDS011;46115;44.484;11.314;2023-02-11T06:12:18;20.83;;;8.97;;
60257;SDS011;46115;44.484;11.314;2023-02-11T06:16:21;19.52;;;10.05;;
60257;SDS011;46115;44.484;11.314;2023-02-11T06:24:25;22.77;;;8.85;;
60257;SDS011;46115;44.484;11.314;2023-02-11T06:28:29;20.52;;;9.13;;
60257;SDS011;46115;44.484;11.314;2023-02-11T06:32:32;21.55;;;8.77;;
60257;SDS011;46115;44.484;11.314;2023-02-11T06:36:34;20.17;;;10.02;;
60257;SDS011;46115;44.484;11.314;2023-02-11T06:40:37;19.80;;;9.73;;
60257;SDS011;46115;44.484;11.314;2023-02-11T06:48:44;19.23;;;9.05;;
60257;SDS011;46115;44.484;11.314;2023-02-11T06:56:48;18.87;;;8.93;;
60257;SDS011;46115;44.484;11.314;2023-02-11T07:04:54;18.98;;;8.95;;
60257;SDS011;46115;44.484;11.314;2023-02-11T07:12:58;17.87;;;8.50;;
60257;SDS011;46115;44.484;11.314;2023-02-11T07:17:01;17.00;;;9.05;;
60257;SDS011;46115;44.484;11.314;2023-02-11T07:21:05;19.95;;;9.35;;
60257;SDS011;46115;44.484;11.314;2023-02-11T07:25:08;17.73;;;9.32;;
60257;SDS011;46115;44.484;11.314;2023-02-11T07:29:10;21.83;;;9.10;;
60257;SDS011;46115;44.484;11.314;2023-02-11T07:33:14;17.58;;;8.82;;
60257;SDS011;46115;44.484;11.314;2023-02-11T07:37:16;16.27;;;9.32;;
60257;SDS011;46115;44.484;11.314;2023-02-11T07:41:20;17.83;;;9.50;;
60257;SDS011;46115;44.484;11.314;2023-02-11T07:45:23;18.40;;;9.77;;
60257;SDS011;46115;44.484;11.314;2023-02-11T07:49:27;16.73;;;9.50;;
60257;SDS011;46115;44.484;11.314;2023-02-11T07:53:29;16.20;;;10.23;;
60257;SDS011;46115;44.484;11.314;2023-02-11T07:57:32;16.52;;;10.77;;
60257;SDS011;46115;44.484;11.314;2023-02-11T08:01:34;15.27;;;10.45;;
60257;SDS011;46115;44.484;11.314;2023-02-11T08:05:38;16.52;;;9.98;;
60257;SDS011;46115;44.484;11.314;2023-02-11T08:09:40;15.60;;;9.38;;
60257;SDS011;46115;44.484;11.314;2023-02-11T08:17:44;15.70;;;10.10;;
60257;SDS011;46115;44.484;11.314;2023-02-11T08:21:48;14.77;;;9.88;;
60257;SDS011;46115;44.484;11.314;2023-02-11T08:25:50;14.65;;;9.18;;
60257;SDS011;46115;44.484;11.314;2023-02-11T08:29:53;11.13;;;9.13;;
60257;SDS011;46115;44.484;11.314;2023-02-11T08:33:55;12.60;;;9.32;;
60257;SDS011;46115;44.484;11.314;2023-02-11T08:38:00;11.55;;;9.05;;
60257;SDS011;46115;44.484;11.314;2023-02-11T08:42:02;13.27;;;9.75;;
60257;SDS011;46115;44.484;11.314;2023-02-11T08:46:04;11.32;;;9.02;;
60257;SDS011;46115;44.484;11.314;2023-02-11T08:50:07;11.38;;;9.70;;
60257;SDS011;46115;44.484;11.314;2023-02-11T08:54:11;16.13;;;12.50;;
60257;SDS011;46115;44.484;11.314;2023-02-11T08:58:14;18.00;;;14.27;;
60257;SDS011;46115;44.484;11.314;2023-02-11T09:02:16;19.10;;;15.70;;
60257;SDS011;46115;44.484;11.314;2023-02-11T09:06:18;17.85;;;15.98;;
60257;SDS011;46115;44.484;11.314;2023-02-11T09:10:23;20.00;;;17.80;;
60257;SDS011;46115;44.484;11.314;2023-02-11T09:14:26;21.77;;;17.13;;
60257;SDS011;46115;44.484;11.314;2023-02-11T09:18:28;21.08;;;18.35;;
60257;SDS011;46115;44.484;11.314;2023-02-11T09:22:31;21.55;;;18.60;;
60257;SDS011;46115;44.484;11.314;2023-02-11T09:26:34;23.08;;;19.10;;
60257;SDS011;46115;44.484;11.314;2023-02-11T09:30:38;21.48;;;18.58;;
60257;SDS011;46115;44.484;11.314;2023-02-11T09:34:40;21.77;;;18.80;;
60257;SDS011;46115;44.484;11.314;2023-02-11T09:38:43;20.05;;;17.92;;
60257;SDS011;46115;44.484;11.314;2023-02-11T09:42:48;22.77;;;19.15;;
60257;SDS011;46115;44.484;11.314;2023-02-11T09:46:55;19.80;;;17.83;;
60257;SDS011;46115;44.484;11.314;2023-02-11T09:51:00;20.52;;;18.35;;
60257;SDS011;46115;44.484;11.314;2023-02-11T09:55:08;26.00;;;20.75;;
60257;SDS011;46115;44.484;11.314;2023-02-11T09:59:19;25.33;;;20.20;;
60257;SDS011;46115;44.484;11.314;2023-02-11T10:03:28;26.25;;;19.75;;
60257;SDS011;46115;44.484;11.314;2023-02-11T10:07:47;29.27;;;20.45;;
60257;SDS011;46115;44.484;11.314;2023-02-11T10:12:00;30.23;;;20.35;;
60257;SDS011;46115;44.484;11.314;2023-02-11T10:16:20;29.98;;;19.73;;
60257;SDS011;46115;44.484;11.314;2023-02-11T10:20:34;31.58;;;19.33;;
60257;SDS011;46115;44.484;11.314;2023-02-11T10:24:39;30.08;;;18.63;;
60257;SDS011;46115;44.484;11.314;2023-02-11T10:28:43;31.48;;;19.35;;
60257;SDS011;46115;44.484;11.314;2023-02-11T10:32:50;33.45;;;18.45;;
60257;SDS011;46115;44.484;11.314;2023-02-11T10:36:56;27.42;;;17.85;;
60257;SDS011;46115;44.484;11.314;2023-02-11T10:40:58;26.83;;;17.15;;
60257;SDS011;46115;44.484;11.314;2023-02-11T10:45:01;26.83;;;16.55;;
60257;SDS011;46115;44.484;11.314;2023-02-11T10:49:07;28.75;;;17.27;;
60257;SDS011;46115;44.484;11.314;2023-02-11T10:53:10;30.98;;;17.10;;
60257;SDS011;46115;44.484;11.314;2023-02-11T10:57:16;26.65;;;16.48;;
60257;SDS011;46115;44.484;11.314;2023-02-11T11:01:19;28.27;;;16.00;;
60257;SDS011;46115;44.484;11.314;2023-02-11T11:05:26;26.95;;;16.52;;
60257;SDS011;46115;44.484;11.314;2023-02-11T11:09:34;30.98;;;17.00;;
60257;SDS011;46115;44.484;11.314;2023-02-11T11:13:53;24.73;;;15.93;;
60257;SDS011;46115;44.484;11.314;2023-02-11T11:18:13;26.30;;;17.10;;
60257;SDS011;46115;44.484;11.314;2023-02-11T11:22:21;26.50;;;17.05;;
60257;SDS011;46115;44.484;11.314;2023-02-11T11:26:23;27.85;;;17.67;;
60257;SDS011;46115;44.484;11.314;2023-02-11T11:30:30;30.73;;;18.65;;
60257;SDS011;46115;44.484;11.314;2023-02-11T11:34:36;29.60;;;17.40;;
60257;SDS011;46115;44.484;11.314;2023-02-11T11:38:43;28.45;;;18.13;;
60257;SDS011;46115;44.484;11.314;2023-02-11T11:43:00;29.70;;;16.98;;
60257;SDS011;46115;44.484;11.314;2023-02-11T11:47:07;27.42;;;17.05;;
60257;SDS011;46115;44.484;11.314;2023-02-11T11:51:25;31.85;;;17.70;;
60257;SDS011;46115;44.484;11.314;2023-02-11T11:55:32;30.35;;;18.55;;
60257;SDS011;46115;44.484;11.314;2023-02-11T11:59:39;28.27;;;18.02;;
60257;SDS011;46115;44.484;11.314;2023-02-11T12:03:47;31.00;;;17.63;;
60257;SDS011;46115;44.484;11.314;2023-02-11T12:08:13;28.73;;;17.75;;
60257;SDS011;46115;44.484;11.314;2023-02-11T12:12:32;28.00;;;17.85;;
60257;SDS011;46115;44.484;11.314;2023-02-11T12:16:48;29.38;;;17.30;;
60257;SDS011;46115;44.484;11.314;2023-02-11T12:21:02;30.98;;;17.27;;
60257;SDS011;46115;44.484;11.314;2023-02-11T12:25:24;26.70;;;16.40;;
60257;SDS011;46115;44.484;11.314;2023-02-11T12:29:30;28.75;;;17.83;;
60257;SDS011;46115;44.484;11.314;2023-02-11T12:33:52;27.63;;;16.95;;
60257;SDS011;46115;44.484;11.314;2023-02-11T12:38:17;31.20;;;17.23;;
60257;SDS011;46115;44.484;11.314;2023-02-11T12:42:45;27.05;;;17.42;;
60257;SDS011;46115;44.484;11.314;2023-02-11T12:47:16;28.70;;;17.42;;
60257;SDS011;46115;44.484;11.314;2023-02-11T12:51:28;28.20;;;17.70;;
60257;SDS011;46115;44.484;11.314;2023-02-11T12:55:41;28.58;;;18.27;;
60257;SDS011;46115;44.484;11.314;2023-02-11T12:59:50;26.58;;;16.35;;
60257;SDS011;46115;44.484;11.314;2023-02-11T13:04:03;27.77;;;16.92;;
60257;SDS011;46115;44.484;11.314;2023-02-11T13:08:10;26.65;;;16.50;;
60257;SDS011;46115;44.484;11.314;2023-02-11T13:12:15;25.23;;;15.43;;
60257;SDS011;46115;44.484;11.314;2023-02-11T13:16:37;26.25;;;16.38;;
60257;SDS011;46115;44.484;11.314;2023-02-11T13:20:44;27.27;;;16.35;;
60257;SDS011;46115;44.484;11.314;2023-02-11T13:24:54;25.75;;;15.73;;
60257;SDS011;46115;44.484;11.314;2023-02-11T13:29:08;25.70;;;15.85;;
60257;SDS011;46115;44.484;11.314;2023-02-11T13:33:20;26.02;;;15.70;;
60257;SDS011;46115;44.484;11.314;2023-02-11T13:37:35;27.25;;;15.80;;
60257;SDS011;46115;44.484;11.314;2023-02-11T13:41:39;26.08;;;16.13;;
60257;SDS011;46115;44.484;11.314;2023-02-11T13:45:45;27.17;;;16.48;;
60257;SDS011;46115;44.484;11.314;2023-02-11T13:49:49;27.40;;;16.20;;
60257;SDS011;46115;44.484;11.314;2023-02-11T13:53:55;27.48;;;16.77;;
60257;SDS011;46115;44.484;11.314;2023-02-11T14:02:34;27.90;;;16.92;;
60257;SDS011;46115;44.484;11.314;2023-02-11T14:11:53;28.02;;;16.58;;
60257;SDS011;46115;44.484;11.314;2023-02-11T14:16:16;25.08;;;15.90;;
60257;SDS011;46115;44.484;11.314;2023-02-11T14:24:46;24.13;;;15.55;;
60257;SDS011;46115;44.484;11.314;2023-02-11T14:28:53;32.97;;;16.50;;
60257;SDS011;46115;44.484;11.314;2023-02-11T14:37:41;28.30;;;16.98;;
60257;SDS011;46115;44.484;11.314;2023-02-11T14:41:48;26.85;;;17.20;;
60257;SDS011;46115;44.484;11.314;2023-02-11T14:45:53;27.85;;;17.85;;
60257;SDS011;46115;44.484;11.314;2023-02-11T14:49:57;26.30;;;17.42;;
60257;SDS011;46115;44.484;11.314;2023-02-11T14:54:00;28.45;;;17.13;;
60257;SDS011;46115;44.484;11.314;2023-02-11T14:58:12;29.48;;;17.85;;
60257;SDS011;46115;44.484;11.314;2023-02-11T15:02:22;30.10;;;18.13;;
60257;SDS011;46115;44.484;11.314;2023-02-11T15:06:30;31.77;;;17.43;;
60257;SDS011;46115;44.484;11.314;2023-02-11T15:10:34;26.95;;;17.25;;
60257;SDS011;46115;44.484;11.314;2023-02-11T15:14:38;30.85;;;18.40;;
60257;SDS011;46115;44.484;11.314;2023-02-11T15:18:48;29.00;;;17.80;;
60257;SDS011;46115;44.484;11.314;2023-02-11T15:22:54;29.48;;;18.25;;
60257;SDS011;46115;44.484;11.314;2023-02-11T15:26:58;30.65;;;17.73;;
60257;SDS011;46115;44.484;11.314;2023-02-11T15:31:03;31.17;;;18.83;;
60257;SDS011;46115;44.484;11.314;2023-02-11T15:35:14;31.67;;;19.02;;
60257;SDS011;46115;44.484;11.314;2023-02-11T15:39:17;28.00;;;18.17;;
60257;SDS011;46115;44.484;11.314;2023-02-11T15:43:41;31.58;;;17.83;;
60257;SDS011;46115;44.484;11.314;2023-02-11T15:47:46;35.92;;;18.35;;
60257;SDS011;46115;44.484;11.314;2023-02-11T15:51:52;29.90;;;18.58;;
60257;SDS011;46115;44.484;11.314;2023-02-11T15:55:59;29.60;;;18.55;;
60257;SDS011;46115;44.484;11.314;2023-02-11T16:00:06;29.35;;;17.75;;
60257;SDS011;46115;44.484;11.314;2023-02-11T16:04:16;31.75;;;18.90;;
60257;SDS011;46115;44.484;11.314;2023-02-11T16:08:23;30.92;;;18.75;;
60257;SDS011;46115;44.484;11.314;2023-02-11T16:12:29;33.08;;;18.58;;
60257;SDS011;46115;44.484;11.314;2023-02-11T16:20:35;35.88;;;18.50;;
60257;SDS011;46115;44.484;11.314;2023-02-11T16:28:41;34.70;;;18.58;;
60257;SDS011;46115;44.484;11.314;2023-02-11T16:36:45;33.03;;;18.43;;
60257;SDS011;46115;44.484;11.314;2023-02-11T16:40:50;33.63;;;17.42;;
60257;SDS011;46115;44.484;11.314;2023-02-11T16:44:52;31.63;;;18.73;;
60257;SDS011;46115;44.484;11.314;2023-02-11T16:48:54;33.60;;;18.58;;
60257;SDS011;46115;44.484;11.314;2023-02-11T16:52:57;36.22;;;21.73;;
60257;SDS011;46115;44.484;11.314;2023-02-11T16:57:07;34.90;;;19.98;;
60257;SDS011;46115;44.484;11.314;2023-02-11T17:01:14;32.13;;;19.80;;
60257;SDS011;46115;44.484;11.314;2023-02-11T23:06:09;17.58;;;9.27;;
60257;SDS011;46115;44.484;11.314;2023-02-11T23:10:12;19.27;;;10.32;;
60257;SDS011;46115;44.484;11.314;2023-02-11T23:18:16;16.70;;;9.40;;
60257;SDS011;46115;44.484;11.314;2023-02-11T23:22:20;18.63;;;10.15;;
60257;SDS011;46115;44.484;11.314;2023-02-11T23:26:23;15.65;;;9.20;;
60257;SDS011;46115;44.484;11.314;2023-02-11T23:30:26;17.95;;;9.70;;
60257;SDS011;46115;44.484;11.314;2023-02-11T23:34:29;18.63;;;9.80;;
60257;SDS011;46115;44.484;11.314;2023-02-11T23:38:33;15.68;;;9.10;;
60257;SDS011;46115;44.484;11.314;2023-02-11T23:42:35;14.60;;;9.23;;
60257;SDS011;46115;44.484;11.314;2023-02-11T23:46:37;16.23;;;9.27;;
60257;SDS011;46115;44.484;11.314;2023-02-11T23:50:40;15.63;;;8.77;;
60257;SDS011;46115;44.484;11.314;2023-02-11T23:54:45;22.02;;;10.60;;
60257;SDS011;46115;44.484;11.314;2023-02-11T23:58:50;13.77;;;8.18;;
